sensor_id;sensor_type;location;lat;lon;timestamp;pressure;altitude;pressure_sealevel;temperature;humidity
61554;BME280;47425;51.976;5.326;2023-04-07T00:00:08;101327.56;;;12.67;56.05
61554;BME280;47425;51.976;5.326;2023-04-07T00:02:37;101327.44;;;12.73;56.17
61554;BME280;47425;51.976;5.326;2023-04-07T00:05:04;101324.88;;;12.72;56.18
61554;BME280;47425;51.976;5.326;2023-04-07T00:07:31;101323.19;;;12.68;56.15
61554;BME280;47425;51.976;5.326;2023-04-07T00:09:58;101330.31;;;12.63;56.55
61554;BME280;47425;51.976;5.326;2023-04-07T00:12:24;101329.69;;;12.50;56.58
61554;BME280;47425;51.976;5.326;2023-04-07T00:14:52;101334.78;;;12.57;56.77
61554;BME280;47425;51.976;5.326;2023-04-07T00:17:20;101341.63;;;12.65;56.24
61554;BME280;47425;51.976;5.326;2023-04-07T00:19:46;101344.19;;;12.69;56.34
61554;BME280;47425;51.976;5.326;2023-04-07T00:22:12;101335.97;;;12.85;56.20
61554;BME280;47425;51.976;5.326;2023-04-07T00:24:40;101344.69;;;12.87;56.10
61554;BME280;47425;51.976;5.326;2023-04-07T00:27:07;101342.50;;;13.06;55.46
61554;BME280;47425;51.976;5.326;2023-04-07T00:29:34;101334.63;;;13.43;54.34
61554;BME280;47425;51.976;5.326;2023-04-07T00:32:00;101336.50;;;13.74;53.59
61554;BME280;47425;51.976;5.326;2023-04-07T00:34:29;101331.84;;;13.86;53.32
61554;BME280;47425;51.976;5.326;2023-04-07T00:36:56;101337.09;;;13.86;53.22
61554;BME280;47425;51.976;5.326;2023-04-07T00:39:22;101336.34;;;13.81;53.28
61554;BME280;47425;51.976;5.326;2023-04-07T00:41:50;101334.00;;;13.70;53.42
61554;BME280;47425;51.976;5.326;2023-04-07T00:44:16;101329.81;;;13.61;53.42
61554;BME280;47425;51.976;5.326;2023-04-07T00:46:43;101336.75;;;13.65;53.54
61554;BME280;47425;51.976;5.326;2023-04-07T00:49:09;101338.56;;;13.63;53.46
61554;BME280;47425;51.976;5.326;2023-04-07T00:51:40;101336.59;;;13.71;53.15
61554;BME280;47425;51.976;5.326;2023-04-07T00:54:06;101339.78;;;13.83;52.89
61554;BME280;47425;51.976;5.326;2023-04-07T00:56:32;101344.72;;;13.97;52.88
61554;BME280;47425;51.976;5.326;2023-04-07T00:59:00;101343.50;;;14.08;52.45
61554;BME280;47425;51.976;5.326;2023-04-07T01:01:31;101332.25;;;14.03;52.20
61554;BME280;47425;51.976;5.326;2023-04-07T01:04:04;101331.72;;;14.22;52.03
61554;BME280;47425;51.976;5.326;2023-04-07T01:06:32;101330.22;;;14.13;51.94
61554;BME280;47425;51.976;5.326;2023-04-07T01:09:04;101335.88;;;13.98;52.17
61554;BME280;47425;51.976;5.326;2023-04-07T01:11:35;101340.78;;;13.79;52.98
61554;BME280;47425;51.976;5.326;2023-04-07T01:14:03;101341.41;;;13.54;53.71
61554;BME280;47425;51.976;5.326;2023-04-07T01:16:38;101334.16;;;13.26;54.44
61554;BME280;47425;51.976;5.326;2023-04-07T01:19:12;101332.59;;;13.17;54.83
61554;BME280;47425;51.976;5.326;2023-04-07T01:21:44;101325.34;;;12.89;55.28
61554;BME280;47425;51.976;5.326;2023-04-07T01:24:26;101329.38;;;12.65;55.84
61554;BME280;47425;51.976;5.326;2023-04-07T01:27:04;101328.75;;;12.52;56.62
61554;BME280;47425;51.976;5.326;2023-04-07T01:29:37;101327.81;;;12.56;56.92
61554;BME280;47425;51.976;5.326;2023-04-07T01:32:13;101338.03;;;12.27;57.39
61554;BME280;47425;51.976;5.326;2023-04-07T01:34:40;101334.22;;;11.96;58.08
61554;BME280;47425;51.976;5.326;2023-04-07T01:37:08;101328.97;;;11.96;58.62
61554;BME280;47425;51.976;5.326;2023-04-07T01:39:34;101333.16;;;12.06;58.59
61554;BME280;47425;51.976;5.326;2023-04-07T01:42:02;101331.59;;;11.96;58.75
61554;BME280;47425;51.976;5.326;2023-04-07T01:44:30;101323.13;;;11.79;59.02
61554;BME280;47425;51.976;5.326;2023-04-07T01:47:02;101330.28;;;11.70;59.61
61554;BME280;47425;51.976;5.326;2023-04-07T01:49:29;101336.63;;;11.57;59.90
61554;BME280;47425;51.976;5.326;2023-04-07T01:51:56;101343.59;;;11.58;60.19
61554;BME280;47425;51.976;5.326;2023-04-07T01:54:24;101335.47;;;11.73;59.94
61554;BME280;47425;51.976;5.326;2023-04-07T01:56:52;101338.00;;;11.80;59.99
61554;BME280;47425;51.976;5.326;2023-04-07T01:59:18;101340.34;;;11.97;59.81
61554;BME280;47425;51.976;5.326;2023-04-07T02:01:45;101339.13;;;12.15;59.00
61554;BME280;47425;51.976;5.326;2023-04-07T02:04:15;101347.88;;;12.15;58.99
61554;BME280;47425;51.976;5.326;2023-04-07T02:06:46;101347.69;;;12.24;58.88
61554;BME280;47425;51.976;5.326;2023-04-07T02:09:19;101351.97;;;12.30;58.71
61554;BME280;47425;51.976;5.326;2023-04-07T02:11:47;101337.75;;;12.40;58.47
61554;BME280;47425;51.976;5.326;2023-04-07T02:14:15;101343.97;;;12.36;58.33
61554;BME280;47425;51.976;5.326;2023-04-07T02:16:54;101341.03;;;12.52;58.04
61554;BME280;47425;51.976;5.326;2023-04-07T02:19:23;101343.94;;;12.80;57.05
61554;BME280;47425;51.976;5.326;2023-04-07T02:21:50;101342.72;;;12.97;56.67
61554;BME280;47425;51.976;5.326;2023-04-07T02:24:18;101341.66;;;13.05;56.27
61554;BME280;47425;51.976;5.326;2023-04-07T02:26:45;101340.63;;;13.11;56.09
61554;BME280;47425;51.976;5.326;2023-04-07T02:29:12;101344.06;;;13.15;55.62
61554;BME280;47425;51.976;5.326;2023-04-07T02:31:41;101344.78;;;13.21;55.83
61554;BME280;47425;51.976;5.326;2023-04-07T02:34:08;101351.41;;;13.39;55.02
61554;BME280;47425;51.976;5.326;2023-04-07T02:36:36;101354.03;;;13.39;54.91
61554;BME280;47425;51.976;5.326;2023-04-07T02:39:05;101349.94;;;13.64;54.07
61554;BME280;47425;51.976;5.326;2023-04-07T02:41:31;101346.84;;;13.82;53.59
61554;BME280;47425;51.976;5.326;2023-04-07T02:43:58;101351.97;;;13.87;53.66
61554;BME280;47425;51.976;5.326;2023-04-07T02:46:24;101347.31;;;13.98;53.36
61554;BME280;47425;51.976;5.326;2023-04-07T02:48:52;101353.75;;;14.19;52.63
61554;BME280;47425;51.976;5.326;2023-04-07T02:51:19;101356.38;;;14.21;52.66
61554;BME280;47425;51.976;5.326;2023-04-07T02:53:46;101350.03;;;13.93;53.03
61554;BME280;47425;51.976;5.326;2023-04-07T02:56:13;101355.69;;;13.80;53.51
61554;BME280;47425;51.976;5.326;2023-04-07T02:58:44;101357.75;;;13.67;53.68
61554;BME280;47425;51.976;5.326;2023-04-07T03:01:10;101355.81;;;13.73;53.44
61554;BME280;47425;51.976;5.326;2023-04-07T03:03:37;101358.03;;;13.90;52.97
61554;BME280;47425;51.976;5.326;2023-04-07T03:06:12;101349.81;;;14.03;52.88
61554;BME280;47425;51.976;5.326;2023-04-07T03:09:00;101343.72;;;14.01;52.44
61554;BME280;47425;51.976;5.326;2023-04-07T03:11:28;101347.41;;;13.93;52.72
61554;BME280;47425;51.976;5.326;2023-04-07T03:13:56;101352.56;;;13.98;52.56
61554;BME280;47425;51.976;5.326;2023-04-07T03:16:26;101353.13;;;14.09;52.27
61554;BME280;47425;51.976;5.326;2023-04-07T03:19:01;101351.53;;;14.37;51.11
61554;BME280;47425;51.976;5.326;2023-04-07T03:21:31;101349.28;;;14.54;50.82
61554;BME280;47425;51.976;5.326;2023-04-07T03:23:57;101345.66;;;14.58;51.03
61554;BME280;47425;51.976;5.326;2023-04-07T03:26:26;101349.22;;;14.56;50.60
61554;BME280;47425;51.976;5.326;2023-04-07T03:28:53;101349.59;;;14.42;51.25
61554;BME280;47425;51.976;5.326;2023-04-07T03:31:19;101349.31;;;14.53;50.63
61554;BME280;47425;51.976;5.326;2023-04-07T03:33:49;101349.91;;;14.63;50.42
61554;BME280;47425;51.976;5.326;2023-04-07T03:36:18;101349.09;;;14.60;50.46
61554;BME280;47425;51.976;5.326;2023-04-07T03:38:46;101344.88;;;14.55;50.35
61554;BME280;47425;51.976;5.326;2023-04-07T03:41:13;101347.22;;;14.66;49.81
61554;BME280;47425;51.976;5.326;2023-04-07T03:43:42;101356.53;;;14.77;49.87
61554;BME280;47425;51.976;5.326;2023-04-07T03:46:09;101358.28;;;14.79;49.46
61554;BME280;47425;51.976;5.326;2023-04-07T03:48:36;101354.97;;;14.70;49.93
61554;BME280;47425;51.976;5.326;2023-04-07T03:51:07;101357.53;;;14.73;49.70
61554;BME280;47425;51.976;5.326;2023-04-07T03:53:36;101360.03;;;14.47;50.37
61554;BME280;47425;51.976;5.326;2023-04-07T03:56:13;101364.72;;;14.35;50.47
61554;BME280;47425;51.976;5.326;2023-04-07T03:58:47;101359.34;;;14.40;50.51
61554;BME280;47425;51.976;5.326;2023-04-07T04:01:21;101369.06;;;14.38;50.88
61554;BME280;47425;51.976;5.326;2023-04-07T04:03:49;101368.59;;;14.22;51.52
61554;BME280;47425;51.976;5.326;2023-04-07T04:06:28;101366.66;;;14.30;51.33
61554;BME280;47425;51.976;5.326;2023-04-07T04:09:03;101358.22;;;14.49;50.39
61554;BME280;47425;51.976;5.326;2023-04-07T04:11:33;101365.81;;;14.59;50.40
61554;BME280;47425;51.976;5.326;2023-04-07T04:14:04;101359.31;;;14.41;50.78
61554;BME280;47425;51.976;5.326;2023-04-07T04:16:34;101357.34;;;14.48;50.55
61554;BME280;47425;51.976;5.326;2023-04-07T04:19:06;101361.09;;;14.39;50.61
61554;BME280;47425;51.976;5.326;2023-04-07T04:21:33;101367.19;;;14.41;50.63
61554;BME280;47425;51.976;5.326;2023-04-07T04:24:01;101365.38;;;14.43;50.68
61554;BME280;47425;51.976;5.326;2023-04-07T04:26:29;101368.84;;;14.46;50.25
61554;BME280;47425;51.976;5.326;2023-04-07T04:29:01;101359.81;;;14.54;50.33
61554;BME280;47425;51.976;5.326;2023-04-07T04:31:29;101363.16;;;14.59;49.93
61554;BME280;47425;51.976;5.326;2023-04-07T04:33:56;101367.22;;;14.73;49.52
61554;BME280;47425;51.976;5.326;2023-04-07T04:36:23;101378.41;;;14.81;49.30
61554;BME280;47425;51.976;5.326;2023-04-07T04:38:56;101377.47;;;14.82;49.66
61554;BME280;47425;51.976;5.326;2023-04-07T04:41:23;101380.22;;;14.79;49.58
61554;BME280;47425;51.976;5.326;2023-04-07T04:43:50;101383.22;;;14.67;49.93
61554;BME280;47425;51.976;5.326;2023-04-07T04:46:21;101385.06;;;14.63;49.71
61554;BME280;47425;51.976;5.326;2023-04-07T04:48:49;101386.44;;;14.76;49.49
61554;BME280;47425;51.976;5.326;2023-04-07T04:51:19;101386.53;;;14.73;49.54
61554;BME280;47425;51.976;5.326;2023-04-07T04:53:50;101391.66;;;14.78;49.75
61554;BME280;47425;51.976;5.326;2023-04-07T04:56:17;101401.09;;;14.87;48.95
61554;BME280;47425;51.976;5.326;2023-04-07T04:58:47;101397.47;;;14.91;49.05
61554;BME280;47425;51.976;5.326;2023-04-07T05:01:37;101402.16;;;14.80;49.25
61554;BME280;47425;51.976;5.326;2023-04-07T05:04:08;101398.16;;;14.66;49.72
61554;BME280;47425;51.976;5.326;2023-04-07T05:06:39;101405.06;;;14.70;49.25
61554;BME280;47425;51.976;5.326;2023-04-07T05:09:09;101415.03;;;14.90;49.18
61554;BME280;47425;51.976;5.326;2023-04-07T05:11:43;101405.94;;;14.71;49.54
61554;BME280;47425;51.976;5.326;2023-04-07T05:14:11;101410.25;;;14.40;50.52
61554;BME280;47425;51.976;5.326;2023-04-07T05:16:42;101408.91;;;13.91;51.79
61554;BME280;47425;51.976;5.326;2023-04-07T05:19:16;101407.16;;;13.91;51.72
61554;BME280;47425;51.976;5.326;2023-04-07T05:21:45;101411.22;;;13.69;52.03
61554;BME280;47425;51.976;5.326;2023-04-07T05:24:12;101418.31;;;13.65;52.48
61554;BME280;47425;51.976;5.326;2023-04-07T05:26:40;101420.97;;;13.65;52.74
61554;BME280;47425;51.976;5.326;2023-04-07T05:29:07;101409.72;;;13.58;52.55
61554;BME280;47425;51.976;5.326;2023-04-07T05:31:33;101409.53;;;13.66;52.65
61554;BME280;47425;51.976;5.326;2023-04-07T05:34:04;101413.94;;;13.66;52.79
61554;BME280;47425;51.976;5.326;2023-04-07T05:36:38;101418.31;;;13.65;52.91
61554;BME280;47425;51.976;5.326;2023-04-07T05:39:24;101411.69;;;13.49;53.45
61554;BME280;47425;51.976;5.326;2023-04-07T05:41:54;101418.16;;;13.34;53.40
61554;BME280;47425;51.976;5.326;2023-04-07T05:44:24;101413.66;;;13.40;53.62
61554;BME280;47425;51.976;5.326;2023-04-07T05:46:52;101423.84;;;13.54;53.20
61554;BME280;47425;51.976;5.326;2023-04-07T05:49:22;101432.47;;;13.61;53.10
61554;BME280;47425;51.976;5.326;2023-04-07T05:51:58;101425.41;;;13.62;53.05
61554;BME280;47425;51.976;5.326;2023-04-07T05:54:25;101424.56;;;13.61;52.92
61554;BME280;47425;51.976;5.326;2023-04-07T05:56:53;101426.47;;;13.54;52.95
61554;BME280;47425;51.976;5.326;2023-04-07T05:59:21;101424.53;;;13.63;52.73
61554;BME280;47425;51.976;5.326;2023-04-07T06:04:30;101428.44;;;13.46;53.07
61554;BME280;47425;51.976;5.326;2023-04-07T06:07:03;101424.47;;;13.25;53.86
61554;BME280;47425;51.976;5.326;2023-04-07T06:09:31;101434.22;;;13.21;53.63
61554;BME280;47425;51.976;5.326;2023-04-07T06:11:58;101434.78;;;13.34;53.66
61554;BME280;47425;51.976;5.326;2023-04-07T06:14:28;101434.19;;;13.23;53.54
61554;BME280;47425;51.976;5.326;2023-04-07T06:16:54;101431.50;;;13.24;53.71
61554;BME280;47425;51.976;5.326;2023-04-07T06:19:23;101438.91;;;13.07;53.96
61554;BME280;47425;51.976;5.326;2023-04-07T06:21:49;101442.72;;;12.92;54.68
61554;BME280;47425;51.976;5.326;2023-04-07T06:24:18;101439.16;;;12.95;55.01
61554;BME280;47425;51.976;5.326;2023-04-07T06:26:48;101449.41;;;13.07;54.69
61554;BME280;47425;51.976;5.326;2023-04-07T06:29:14;101447.69;;;13.06;54.62
61554;BME280;47425;51.976;5.326;2023-04-07T06:31:41;101444.34;;;12.98;54.83
61554;BME280;47425;51.976;5.326;2023-04-07T06:34:09;101455.28;;;12.78;55.09
61554;BME280;47425;51.976;5.326;2023-04-07T06:36:36;101454.25;;;12.85;55.12
61554;BME280;47425;51.976;5.326;2023-04-07T06:39:03;101453.97;;;12.97;55.08
61554;BME280;47425;51.976;5.326;2023-04-07T06:41:32;101456.00;;;13.28;54.27
61554;BME280;47425;51.976;5.326;2023-04-07T06:43:58;101457.03;;;13.60;53.43
61554;BME280;47425;51.976;5.326;2023-04-07T06:46:25;101462.75;;;13.79;53.19
61554;BME280;47425;51.976;5.326;2023-04-07T06:48:51;101465.72;;;14.01;52.50
61554;BME280;47425;51.976;5.326;2023-04-07T06:51:19;101468.22;;;14.06;52.27
61554;BME280;47425;51.976;5.326;2023-04-07T06:53:45;101472.88;;;13.96;52.11
61554;BME280;47425;51.976;5.326;2023-04-07T06:56:12;101471.22;;;13.92;52.72
61554;BME280;47425;51.976;5.326;2023-04-07T06:58:42;101472.16;;;13.89;52.29
61554;BME280;47425;51.976;5.326;2023-04-07T07:01:08;101474.28;;;13.73;52.96
61554;BME280;47425;51.976;5.326;2023-04-07T07:03:35;101484.59;;;13.83;52.87
61554;BME280;47425;51.976;5.326;2023-04-07T07:06:01;101480.47;;;14.08;52.26
61554;BME280;47425;51.976;5.326;2023-04-07T07:08:29;101483.09;;;14.10;52.19
61554;BME280;47425;51.976;5.326;2023-04-07T07:10:55;101486.78;;;14.01;52.30
61554;BME280;47425;51.976;5.326;2023-04-07T07:13:23;101485.53;;;13.80;52.19
61554;BME280;47425;51.976;5.326;2023-04-07T07:15:52;101490.16;;;13.70;53.40
61554;BME280;47425;51.976;5.326;2023-04-07T07:18:19;101489.38;;;13.65;53.29
61554;BME280;47425;51.976;5.326;2023-04-07T07:20:45;101492.19;;;13.59;53.52
61554;BME280;47425;51.976;5.326;2023-04-07T07:23:12;101495.63;;;13.61;53.68
61554;BME280;47425;51.976;5.326;2023-04-07T07:25:39;101502.81;;;13.53;53.74
61554;BME280;47425;51.976;5.326;2023-04-07T07:28:06;101498.41;;;13.53;53.86
61554;BME280;47425;51.976;5.326;2023-04-07T07:30:33;101506.06;;;13.64;53.56
61554;BME280;47425;51.976;5.326;2023-04-07T07:33:01;101493.84;;;13.63;53.70
61554;BME280;47425;51.976;5.326;2023-04-07T07:35:47;101505.09;;;13.68;53.41
61554;BME280;47425;51.976;5.326;2023-04-07T07:38:14;101508.72;;;13.64;53.96
61554;BME280;47425;51.976;5.326;2023-04-07T07:40:40;101502.13;;;13.45;54.15
61554;BME280;47425;51.976;5.326;2023-04-07T07:43:06;101518.00;;;13.41;54.70
61554;BME280;47425;51.976;5.326;2023-04-07T07:45:33;101518.56;;;13.10;54.97
61554;BME280;47425;51.976;5.326;2023-04-07T07:47:59;101520.50;;;13.02;55.67
61554;BME280;47425;51.976;5.326;2023-04-07T07:50:27;101521.19;;;13.10;55.19
61554;BME280;47425;51.976;5.326;2023-04-07T07:52:55;101527.75;;;13.33;54.73
61554;BME280;47425;51.976;5.326;2023-04-07T07:55:21;101530.03;;;13.52;54.51
61554;BME280;47425;51.976;5.326;2023-04-07T07:57:48;101519.91;;;13.74;53.67
61554;BME280;47425;51.976;5.326;2023-04-07T08:00:14;101528.28;;;13.91;53.10
61554;BME280;47425;51.976;5.326;2023-04-07T08:02:42;101529.78;;;14.03;52.68
61554;BME280;47425;51.976;5.326;2023-04-07T08:07:51;101533.09;;;14.46;52.29
61554;BME280;47425;51.976;5.326;2023-04-07T08:10:20;101542.53;;;14.55;51.53
61554;BME280;47425;51.976;5.326;2023-04-07T08:12:48;101539.69;;;14.64;51.68
61554;BME280;47425;51.976;5.326;2023-04-07T08:15:15;101549.34;;;14.65;51.67
61554;BME280;47425;51.976;5.326;2023-04-07T08:17:41;101542.28;;;14.30;52.45
61554;BME280;47425;51.976;5.326;2023-04-07T08:20:09;101549.88;;;14.07;52.74
61554;BME280;47425;51.976;5.326;2023-04-07T08:22:36;101550.94;;;13.99;53.22
61554;BME280;47425;51.976;5.326;2023-04-07T08:25:04;101550.84;;;14.03;52.95
61554;BME280;47425;51.976;5.326;2023-04-07T08:27:30;101545.09;;;14.22;52.83
61554;BME280;47425;51.976;5.326;2023-04-07T08:30:17;101549.97;;;14.39;52.32
61554;BME280;47425;51.976;5.326;2023-04-07T08:32:45;101556.09;;;14.41;52.38
61554;BME280;47425;51.976;5.326;2023-04-07T08:35:11;101558.78;;;14.38;52.20
61554;BME280;47425;51.976;5.326;2023-04-07T08:37:38;101560.00;;;14.59;51.65
61554;BME280;47425;51.976;5.326;2023-04-07T08:40:08;101554.97;;;14.50;52.02
61554;BME280;47425;51.976;5.326;2023-04-07T08:42:34;101562.00;;;14.13;52.58
61554;BME280;47425;51.976;5.326;2023-04-07T08:45:07;101564.84;;;14.04;52.89
61554;BME280;47425;51.976;5.326;2023-04-07T08:47:35;101567.81;;;13.90;53.57
61554;BME280;47425;51.976;5.326;2023-04-07T08:50:02;101565.88;;;13.98;53.05
61554;BME280;47425;51.976;5.326;2023-04-07T08:52:32;101567.53;;;14.02;53.45
61554;BME280;47425;51.976;5.326;2023-04-07T08:54:58;101573.44;;;13.73;53.80
61554;BME280;47425;51.976;5.326;2023-04-07T08:57:48;101578.88;;;13.65;53.37
61554;BME280;47425;51.976;5.326;2023-04-07T09:00:14;101571.22;;;13.54;53.68
61554;BME280;47425;51.976;5.326;2023-04-07T09:02:41;101576.47;;;13.54;53.96
61554;BME280;47425;51.976;5.326;2023-04-07T09:05:09;101581.00;;;13.48;53.87
61554;BME280;47425;51.976;5.326;2023-04-07T09:07:39;101576.63;;;13.47;53.70
61554;BME280;47425;51.976;5.326;2023-04-07T09:10:07;101581.94;;;13.45;53.89
61554;BME280;47425;51.976;5.326;2023-04-07T09:12:33;101592.16;;;13.61;54.02
61554;BME280;47425;51.976;5.326;2023-04-07T09:15:03;101582.19;;;13.73;53.63
61554;BME280;47425;51.976;5.326;2023-04-07T09:17:29;101587.63;;;13.67;53.46
61554;BME280;47425;51.976;5.326;2023-04-07T09:19:56;101585.25;;;13.53;53.39
61554;BME280;47425;51.976;5.326;2023-04-07T09:22:36;101589.56;;;13.57;53.42
61554;BME280;47425;51.976;5.326;2023-04-07T09:25:13;101588.59;;;13.63;53.34
61554;BME280;47425;51.976;5.326;2023-04-07T09:27:52;101597.72;;;13.87;52.99
61554;BME280;47425;51.976;5.326;2023-04-07T09:30:21;101589.63;;;13.97;52.56
61554;BME280;47425;51.976;5.326;2023-04-07T09:32:48;101590.47;;;13.97;52.96
61554;BME280;47425;51.976;5.326;2023-04-07T09:35:16;101589.91;;;13.83;52.55
61554;BME280;47425;51.976;5.326;2023-04-07T09:37:42;101594.75;;;13.62;52.33
61554;BME280;47425;51.976;5.326;2023-04-07T09:40:09;101599.91;;;13.67;53.15
61554;BME280;47425;51.976;5.326;2023-04-07T09:42:43;101594.91;;;13.54;53.07
61554;BME280;47425;51.976;5.326;2023-04-07T09:45:11;101599.28;;;13.55;53.16
61554;BME280;47425;51.976;5.326;2023-04-07T09:47:39;101604.50;;;13.57;53.39
61554;BME280;47425;51.976;5.326;2023-04-07T09:50:06;101604.03;;;13.36;53.50
61554;BME280;47425;51.976;5.326;2023-04-07T09:52:49;101597.19;;;13.26;53.78
61554;BME280;47425;51.976;5.326;2023-04-07T09:55:19;101606.84;;;13.24;54.14
61554;BME280;47425;51.976;5.326;2023-04-07T09:57:45;101604.13;;;13.30;53.79
61554;BME280;47425;51.976;5.326;2023-04-07T10:00:13;101611.13;;;13.31;53.91
61554;BME280;47425;51.976;5.326;2023-04-07T10:02:42;101608.28;;;13.43;53.94
61554;BME280;47425;51.976;5.326;2023-04-07T10:05:09;101606.75;;;13.75;53.25
61554;BME280;47425;51.976;5.326;2023-04-07T10:07:36;101607.84;;;14.04;52.25
61554;BME280;47425;51.976;5.326;2023-04-07T10:10:02;101603.50;;;14.03;52.29
61554;BME280;47425;51.976;5.326;2023-04-07T10:12:30;101603.34;;;14.09;52.16
61554;BME280;47425;51.976;5.326;2023-04-07T10:14:57;101607.59;;;14.15;51.70
61554;BME280;47425;51.976;5.326;2023-04-07T10:17:28;101612.41;;;13.98;52.05
61554;BME280;47425;51.976;5.326;2023-04-07T10:19:58;101611.56;;;13.96;52.50
61554;BME280;47425;51.976;5.326;2023-04-07T10:22:25;101613.72;;;13.78;52.34
61554;BME280;47425;51.976;5.326;2023-04-07T10:24:53;101623.34;;;13.79;53.06
61554;BME280;47425;51.976;5.326;2023-04-07T10:27:21;101626.69;;;13.87;53.36
61554;BME280;47425;51.976;5.326;2023-04-07T10:29:49;101623.19;;;13.85;53.21
61554;BME280;47425;51.976;5.326;2023-04-07T10:32:16;101628.63;;;13.77;53.21
61554;BME280;47425;51.976;5.326;2023-04-07T10:34:55;101628.03;;;13.65;53.46
61554;BME280;47425;51.976;5.326;2023-04-07T10:37:25;101632.72;;;13.49;53.68
61554;BME280;47425;51.976;5.326;2023-04-07T10:42:45;101637.09;;;13.92;53.62
61554;BME280;47425;51.976;5.326;2023-04-07T10:45:12;101637.91;;;14.35;52.51
61554;BME280;47425;51.976;5.326;2023-04-07T10:50:23;101641.69;;;14.97;50.84
61554;BME280;47425;51.976;5.326;2023-04-07T10:53:03;101643.94;;;15.12;50.35
61554;BME280;47425;51.976;5.326;2023-04-07T10:55:35;101645.09;;;15.02;50.81
61554;BME280;47425;51.976;5.326;2023-04-07T10:58:19;101642.81;;;14.86;50.77
61554;BME280;47425;51.976;5.326;2023-04-07T11:03:34;101652.66;;;14.03;51.20
61554;BME280;47425;51.976;5.326;2023-04-07T11:06:16;101643.22;;;13.92;52.46
61554;BME280;47425;51.976;5.326;2023-04-07T11:08:44;101644.91;;;13.97;52.34
61554;BME280;47425;51.976;5.326;2023-04-07T11:11:12;101648.91;;;13.74;52.37
61554;BME280;47425;51.976;5.326;2023-04-07T11:13:39;101649.34;;;13.95;53.03
61554;BME280;47425;51.976;5.326;2023-04-07T11:16:06;101652.34;;;14.18;52.70
61554;BME280;47425;51.976;5.326;2023-04-07T11:18:35;101657.84;;;14.06;52.04
61554;BME280;47425;51.976;5.326;2023-04-07T11:21:02;101654.28;;;14.08;52.66
61554;BME280;47425;51.976;5.326;2023-04-07T11:23:36;101661.31;;;14.09;52.52
61554;BME280;47425;51.976;5.326;2023-04-07T11:26:05;101657.16;;;13.98;52.16
61554;BME280;47425;51.976;5.326;2023-04-07T11:28:32;101665.94;;;13.54;53.17
61554;BME280;47425;51.976;5.326;2023-04-07T11:30:59;101661.00;;;13.37;53.37
61554;BME280;47425;51.976;5.326;2023-04-07T11:33:26;101661.91;;;13.36;54.21
61554;BME280;47425;51.976;5.326;2023-04-07T11:35:54;101657.72;;;13.24;53.67
61554;BME280;47425;51.976;5.326;2023-04-07T11:38:22;101656.59;;;13.39;54.06
61554;BME280;47425;51.976;5.326;2023-04-07T11:40:49;101666.94;;;13.49;53.99
61554;BME280;47425;51.976;5.326;2023-04-07T11:43:18;101663.81;;;13.73;53.45
61554;BME280;47425;51.976;5.326;2023-04-07T11:45:45;101670.56;;;13.87;53.50
61554;BME280;47425;51.976;5.326;2023-04-07T11:48:24;101676.53;;;13.95;53.07
61554;BME280;47425;51.976;5.326;2023-04-07T11:50:51;101671.94;;;14.05;52.83
61554;BME280;47425;51.976;5.326;2023-04-07T11:53:23;101666.41;;;14.17;52.64
61554;BME280;47425;51.976;5.326;2023-04-07T11:55:57;101670.13;;;14.46;52.21
61554;BME280;47425;51.976;5.326;2023-04-07T11:58:27;101665.78;;;14.83;51.41
61554;BME280;47425;51.976;5.326;2023-04-07T12:00:53;101675.31;;;14.88;50.89
61554;BME280;47425;51.976;5.326;2023-04-07T12:03:22;101678.72;;;14.56;50.72
61554;BME280;47425;51.976;5.326;2023-04-07T12:05:49;101674.38;;;14.53;51.45
61554;BME280;47425;51.976;5.326;2023-04-07T12:08:16;101668.72;;;14.70;51.57
61554;BME280;47425;51.976;5.326;2023-04-07T12:10:43;101680.13;;;15.07;50.35
61554;BME280;47425;51.976;5.326;2023-04-07T12:13:12;101682.72;;;15.41;49.75
61554;BME280;47425;51.976;5.326;2023-04-07T12:15:40;101691.56;;;15.39;49.26
61554;BME280;47425;51.976;5.326;2023-04-07T12:18:07;101690.34;;;15.19;49.73
61554;BME280;47425;51.976;5.326;2023-04-07T12:20:34;101691.38;;;15.14;50.19
61554;BME280;47425;51.976;5.326;2023-04-07T12:23:01;101693.19;;;15.12;49.75
61554;BME280;47425;51.976;5.326;2023-04-07T12:25:28;101655.81;;;14.94;49.95
61554;BME280;47425;51.976;5.326;2023-04-07T12:27:54;101701.75;;;15.20;49.67
61554;BME280;47425;51.976;5.326;2023-04-07T12:30:22;101702.69;;;15.19;49.35
61554;BME280;47425;51.976;5.326;2023-04-07T12:32:50;101706.28;;;15.16;49.89
61554;BME280;47425;51.976;5.326;2023-04-07T12:35:16;101708.47;;;14.99;49.78
61554;BME280;47425;51.976;5.326;2023-04-07T12:37:43;101705.41;;;14.80;50.48
61554;BME280;47425;51.976;5.326;2023-04-07T12:40:11;101702.72;;;14.83;50.55
61554;BME280;47425;51.976;5.326;2023-04-07T12:42:40;101710.75;;;14.76;49.85
61554;BME280;47425;51.976;5.326;2023-04-07T12:45:06;101712.41;;;14.41;50.49
61554;BME280;47425;51.976;5.326;2023-04-07T12:47:33;101712.53;;;14.35;51.46
61554;BME280;47425;51.976;5.326;2023-04-07T12:50:04;101711.13;;;14.20;51.43
61554;BME280;47425;51.976;5.326;2023-04-07T12:52:30;101716.31;;;14.25;51.80
61554;BME280;47425;51.976;5.326;2023-04-07T12:54:57;101716.50;;;14.55;51.26
61554;BME280;47425;51.976;5.326;2023-04-07T12:57:25;101718.22;;;14.95;50.63
61554;BME280;47425;51.976;5.326;2023-04-07T12:59:51;101726.59;;;15.13;49.77
61554;BME280;47425;51.976;5.326;2023-04-07T13:02:18;101719.28;;;15.22;49.99
61554;BME280;47425;51.976;5.326;2023-04-07T13:04:45;101721.88;;;15.25;49.73
61554;BME280;47425;51.976;5.326;2023-04-07T13:07:14;101722.69;;;15.27;49.53
61554;BME280;47425;51.976;5.326;2023-04-07T13:09:40;101725.84;;;15.42;49.11
61554;BME280;47425;51.976;5.326;2023-04-07T13:12:07;101725.28;;;15.29;49.14